Sao Paulo, Brazil
Current Conditions -  °F | °C
As of 11:00 PM on Saturday 25 Oct 2014 (Local Time) from SBMT Reporting Station
Haze Haze  
Wind Chill: 68°   Ceiling: 1600
Heat Index: 68°   Visibility: 3mi
Dew Point: 63°   Wind: 3mph
Humidity: 83%   Direction: 120°ESE
Pressure: 30.03"   Gusts: NA
Location:  23.53°S, 46.63°W
Report Text: SBMT 260100Z 12003KT 5000 BR BKN016 BKN035 20/17 Q1017
Loading
Personal Weather Stations






























Interactive Weather Map
Tropical Storm Tracking
New forecast layout! Learn more

10-Day Weather Forecast

Advertisements
Track Severe Weather on mobile